createdAt,value
2018-11-05T00:01:04.292Z,115.07
2018-11-05T00:03:31.220Z,116.13
2018-11-05T00:05:58.141Z,108.13
2018-11-05T00:08:25.052Z,104.23
2018-11-05T00:10:51.968Z,92.03
2018-11-05T00:13:18.893Z,114.47
2018-11-05T00:15:45.903Z,114.07
2018-11-05T00:18:12.817Z,117.63
2018-11-05T00:20:39.761Z,110.10
2018-11-05T00:23:06.683Z,107.47
2018-11-05T00:25:33.620Z,126.03
2018-11-05T00:28:00.541Z,118.47
2018-11-05T00:30:27.473Z,104.77
2018-11-05T00:32:54.394Z,109.47
2018-11-05T00:35:21.316Z,105.43
2018-11-05T00:37:48.245Z,101.07
2018-11-05T00:40:15.883Z,101.53
2018-11-05T00:42:43.421Z,113.10
2018-11-05T00:45:11.204Z,117.03
2018-11-05T00:47:38.156Z,92.67
2018-11-05T00:50:09.088Z,112.47
2018-11-05T00:52:36.076Z,119.50
2018-11-05T00:55:03.061Z,107.70
2018-11-05T00:57:29.978Z,108.67
2018-11-05T00:59:56.932Z,99.53
2018-11-05T01:02:23.863Z,118.03
2018-11-05T01:04:50.790Z,100.80
2018-11-05T01:07:17.710Z,104.90
2018-11-05T01:09:44.650Z,114.43
2018-11-05T01:12:11.562Z,116.80
2018-11-05T01:14:38.493Z,112.33
2018-11-05T01:17:05.454Z,120.97
2018-11-05T01:19:32.390Z,110.13
2018-11-05T01:21:59.301Z,119.77
2018-11-05T01:24:26.456Z,110.63
2018-11-05T01:26:53.396Z,122.57
2018-11-05T01:29:20.339Z,128.27
2018-11-05T01:31:47.274Z,112.57
2018-11-05T01:34:14.234Z,125.63
2018-11-05T01:36:41.158Z,127.93
2018-11-05T01:39:09.381Z,117.93
2018-11-05T01:41:36.349Z,133.20
2018-11-05T01:44:03.280Z,133.30
2018-11-05T01:46:30.217Z,118.33
2018-11-05T01:48:57.137Z,127.30
2018-11-05T01:51:24.061Z,138.47
2018-11-05T01:53:51.033Z,135.33
2018-11-05T01:56:17.974Z,138.80
2018-11-05T01:58:44.930Z,142.13
2018-11-05T02:01:11.867Z,140.13
2018-11-05T02:03:38.772Z,137.10
2018-11-05T02:06:05.718Z,135.23
2018-11-05T02:08:32.636Z,133.83
2018-11-05T02:10:59.581Z,121.20
2018-11-05T02:13:26.563Z,143.87
2018-11-05T02:16:00.227Z,142.57
2018-11-05T02:18:27.156Z,130.93
2018-11-05T02:20:54.113Z,144.83
2018-11-05T02:23:21.036Z,136.60
2018-11-05T02:25:47.992Z,97.80
2018-11-05T02:28:14.913Z,111.70
2018-11-05T02:30:41.862Z,119.77
2018-11-05T02:33:08.782Z,116.57
2018-11-05T02:35:35.731Z,101.97
2018-11-05T02:38:02.669Z,127.73
2018-11-05T02:40:29.595Z,123.57
2018-11-05T02:42:56.523Z,129.53
2018-11-05T02:45:23.497Z,122.97
2018-11-05T02:47:50.400Z,115.87
2018-11-05T02:50:17.334Z,134.53
2018-11-05T02:52:45.139Z,105.10
2018-11-05T02:55:12.109Z,130.93
2018-11-05T02:57:39.061Z,123.37
2018-11-05T03:00:08.760Z,111.13
2018-11-05T03:02:35.745Z,119.03
2018-11-05T03:05:02.829Z,117.77
2018-11-05T03:07:29.751Z,123.43
2018-11-05T03:09:56.694Z,118.27
2018-11-05T03:12:23.688Z,124.90
2018-11-05T03:14:50.636Z,128.30
2018-11-05T03:17:17.584Z,120.73
2018-11-05T03:19:44.519Z,124.07
2018-11-05T03:22:11.448Z,126.97
2018-11-05T03:24:38.388Z,128.17
2018-11-05T03:27:05.575Z,136.27
2018-11-05T03:29:32.527Z,127.23
2018-11-05T03:31:59.488Z,114.63
2018-11-05T03:34:26.430Z,108.17
2018-11-05T03:36:53.376Z,117.13
2018-11-05T03:39:27.151Z,101.47
2018-11-05T03:41:54.083Z,126.47
2018-11-05T03:44:21.014Z,119.90
2018-11-05T03:46:47.943Z,108.17
2018-11-05T03:49:14.884Z,109.83
2018-11-05T03:51:41.850Z,106.17
2018-11-05T03:54:08.801Z,110.80
2018-11-05T03:56:35.898Z,128.13
2018-11-05T03:59:02.760Z,124.60
2018-11-05T04:01:29.692Z,135.10
2018-11-05T04:03:56.602Z,89.70
2018-11-05T04:06:23.571Z,100.43
2018-11-05T04:08:50.510Z,129.53
2018-11-05T04:11:17.481Z,105.40
2018-11-05T04:13:44.409Z,103.60
2018-11-05T04:16:11.492Z,95.23
2018-11-05T04:18:38.350Z,126.63
2018-11-05T04:21:05.330Z,102.27
2018-11-05T04:23:32.261Z,117.07
2018-11-05T04:25:59.200Z,109.80
2018-11-05T04:28:26.139Z,105.47
2018-11-05T04:30:53.073Z,106.37
2018-11-05T04:33:20.035Z,89.37
2018-11-05T04:35:46.987Z,101.37
2018-11-05T04:38:13.920Z,104.90
2018-11-05T04:40:40.852Z,108.63
2018-11-05T04:43:07.810Z,99.23
2018-11-05T04:45:34.774Z,105.13
2018-11-05T04:48:01.702Z,100.70
2018-11-05T04:50:28.651Z,106.10
2018-11-05T04:52:55.576Z,114.43
2018-11-05T04:55:22.537Z,107.77
2018-11-05T04:57:49.477Z,101.20
2018-11-05T05:00:17.646Z,112.93
2018-11-05T05:02:44.692Z,104.70
2018-11-05T05:05:12.869Z,108.47
2018-11-05T05:07:39.814Z,114.10
2018-11-05T05:10:07.280Z,108.60
2018-11-05T05:12:34.288Z,105.87
2018-11-05T05:15:01.195Z,105.60
2018-11-05T05:17:28.276Z,106.43
2018-11-05T05:19:55.223Z,111.60
2018-11-05T05:22:22.174Z,105.90
2018-11-05T05:24:49.040Z,106.13
2018-11-05T05:27:15.969Z,108.97
2018-11-05T05:29:42.865Z,108.77
2018-11-05T05:32:09.789Z,105.10
2018-11-05T05:34:36.694Z,90.03
2018-11-05T05:37:03.628Z,99.23
2018-11-05T05:39:30.553Z,96.53
2018-11-05T05:41:57.608Z,110.57
2018-11-05T05:44:24.517Z,90.43
2018-11-05T05:46:51.436Z,107.53
2018-11-05T05:49:18.358Z,102.23
2018-11-05T05:51:45.281Z,101.30
2018-11-05T05:54:12.193Z,105.97
2018-11-05T05:56:39.127Z,88.87
2018-11-05T05:59:06.053Z,91.30
2018-11-05T06:01:33.038Z,95.67
2018-11-05T06:03:59.972Z,94.70
2018-11-05T06:06:26.991Z,104.27
2018-11-05T06:08:53.901Z,100.57
2018-11-05T06:11:21.044Z,97.27
2018-11-05T06:13:47.984Z,96.27
2018-11-05T06:16:14.901Z,89.00
2018-11-05T06:18:41.928Z,99.30
2018-11-05T06:21:08.872Z,91.67
2018-11-05T06:23:35.820Z,89.00
2018-11-05T06:26:02.797Z,100.73
2018-11-05T06:28:29.777Z,95.00
2018-11-05T06:30:56.691Z,85.83
2018-11-05T06:33:23.663Z,90.37
2018-11-05T06:35:50.588Z,83.80
2018-11-05T06:38:17.527Z,88.63
2018-11-05T06:40:44.474Z,85.63
2018-11-05T06:43:11.440Z,91.43
2018-11-05T06:45:38.382Z,73.60
2018-11-05T06:48:05.366Z,95.00
2018-11-05T06:50:32.317Z,95.03
2018-11-05T06:52:59.310Z,86.30
2018-11-05T06:55:26.302Z,77.50
2018-11-05T06:57:53.340Z,81.73
2018-11-05T07:00:21.540Z,86.60
2018-11-05T07:02:48.480Z,87.50
2018-11-05T07:05:15.640Z,86.43
2018-11-05T07:07:49.395Z,87.00
2018-11-05T07:10:17.014Z,64.40
2018-11-05T07:12:44.347Z,75.27
2018-11-05T07:15:12.558Z,68.47
2018-11-05T07:17:39.509Z,74.83
2018-11-05T07:20:08.481Z,76.60
2018-11-05T07:22:35.417Z,79.80
2018-11-05T07:25:02.373Z,74.90
2018-11-05T07:27:29.313Z,91.53
2018-11-05T07:29:56.255Z,80.60
2018-11-05T07:32:23.194Z,71.93
2018-11-05T07:34:50.109Z,79.67
2018-11-05T07:37:17.013Z,82.47
2018-11-05T07:39:43.933Z,75.23
2018-11-05T07:42:10.846Z,85.37
2018-11-05T07:44:37.757Z,74.67
2018-11-05T07:47:04.729Z,74.60
2018-11-05T07:49:31.948Z,71.37
2018-11-05T07:51:58.880Z,74.27
2018-11-05T07:54:25.819Z,78.07
2018-11-05T07:56:52.861Z,77.87
2018-11-05T07:59:19.764Z,71.00
2018-11-05T08:01:46.709Z,78.43
2018-11-05T08:04:13.642Z,78.03
2018-11-05T08:06:40.650Z,72.73
2018-11-05T08:09:08.950Z,71.77
2018-11-05T08:11:35.917Z,79.67
2018-11-05T08:14:02.942Z,71.57
2018-11-05T08:16:29.913Z,76.13
2018-11-05T08:18:56.857Z,72.87
2018-11-05T08:21:23.828Z,67.77
2018-11-05T08:23:50.783Z,65.83
2018-11-05T08:26:17.739Z,69.90
2018-11-05T08:28:44.701Z,63.50
2018-11-05T08:31:11.649Z,73.00
2018-11-05T08:33:38.674Z,67.80
2018-11-05T08:36:05.678Z,66.13
2018-11-05T08:38:32.625Z,63.83
2018-11-05T08:40:59.585Z,67.90
2018-11-05T08:43:26.556Z,61.63
2018-11-05T08:45:53.493Z,67.87
2018-11-05T08:48:20.425Z,68.73
2018-11-05T08:50:47.477Z,60.37
2018-11-05T08:53:14.334Z,61.83
2018-11-05T08:55:41.285Z,61.63
2018-11-05T08:58:08.238Z,65.60
2018-11-05T09:00:40.834Z,60.33
2018-11-05T09:03:07.772Z,57.73
2018-11-05T09:05:34.709Z,62.13
2018-11-05T09:08:01.638Z,59.83
2018-11-05T09:10:28.775Z,57.43
2018-11-05T09:12:55.514Z,51.43
2018-11-05T09:15:29.362Z,57.20
2018-11-05T09:17:56.308Z,53.77
2018-11-05T09:20:23.240Z,52.03
2018-11-05T09:22:50.774Z,57.43
2018-11-05T09:25:17.781Z,52.03
2018-11-05T09:27:44.750Z,44.50
2018-11-05T09:30:15.005Z,50.23
2018-11-05T09:32:42.457Z,53.57
2018-11-05T09:35:09.716Z,53.67
2018-11-05T09:37:36.656Z,49.47
2018-11-05T09:40:05.028Z,49.93
2018-11-05T09:42:31.981Z,47.27
2018-11-05T09:44:58.916Z,50.00
2018-11-05T09:47:25.829Z,45.23
2018-11-05T09:49:52.788Z,45.03
2018-11-05T09:52:19.793Z,44.53
2018-11-05T09:54:46.705Z,49.37
2018-11-05T09:57:13.730Z,47.73
2018-11-05T09:59:40.613Z,45.67
2018-11-05T10:02:07.564Z,44.97
2018-11-05T10:04:34.664Z,47.30
2018-11-05T10:07:01.503Z,47.83
2018-11-05T10:09:28.536Z,45.47
2018-11-05T10:11:55.563Z,47.10
2018-11-05T10:14:22.563Z,43.17
2018-11-05T10:16:49.756Z,45.37
2018-11-05T10:19:16.740Z,45.07
2018-11-05T10:21:43.718Z,43.10
2018-11-05T10:24:10.660Z,49.57
2018-11-05T10:26:37.637Z,47.00
2018-11-05T10:29:04.599Z,44.77
2018-11-05T10:31:31.544Z,44.97
2018-11-05T10:33:58.882Z,44.00
2018-11-05T10:36:25.845Z,39.70
2018-11-05T10:38:52.934Z,43.13
2018-11-05T10:41:20.257Z,39.80
2018-11-05T10:43:47.389Z,48.20
2018-11-05T10:46:14.378Z,47.07
2018-11-05T10:48:41.289Z,42.43
2018-11-05T10:51:08.279Z,37.53
2018-11-05T10:53:35.214Z,40.77
2018-11-05T10:56:02.197Z,43.73
2018-11-05T10:58:29.162Z,41.43
2018-11-05T11:01:01.789Z,46.10
2018-11-05T11:03:36.015Z,47.13
2018-11-05T11:06:03.661Z,45.47
2018-11-05T11:08:30.607Z,41.57
2018-11-05T11:10:57.527Z,45.00
2018-11-05T11:13:24.429Z,41.30
2018-11-05T11:15:51.346Z,43.43
2018-11-05T11:18:18.254Z,42.03
2018-11-05T11:20:45.161Z,41.53
2018-11-05T11:23:12.073Z,42.93
2018-11-05T11:25:38.978Z,45.53
2018-11-05T11:28:06.111Z,38.97
2018-11-05T11:30:32.854Z,44.37
2018-11-05T11:32:59.768Z,45.73
2018-11-05T11:35:26.695Z,42.17
2018-11-05T11:37:53.621Z,40.83
2018-11-05T11:40:21.916Z,43.97
2018-11-05T11:42:49.191Z,48.63
2018-11-05T11:45:17.204Z,43.77
2018-11-05T11:47:44.112Z,41.60
2018-11-05T11:50:12.269Z,40.63
2018-11-05T11:52:39.264Z,43.73
2018-11-05T11:55:07.703Z,43.07
2018-11-05T11:57:34.757Z,41.33
2018-11-05T12:00:01.673Z,44.00
2018-11-05T12:02:28.630Z,41.17
2018-11-05T12:04:55.679Z,45.63
2018-11-05T12:07:22.553Z,44.00
2018-11-05T12:09:49.490Z,43.77
2018-11-05T12:12:16.433Z,44.03
2018-11-05T12:14:43.593Z,43.87
2018-11-05T12:17:10.350Z,44.53
2018-11-05T12:19:37.292Z,46.77
2018-11-05T12:22:11.004Z,43.83
2018-11-05T12:24:38.146Z,40.37
2018-11-05T12:27:04.964Z,44.90
2018-11-05T12:29:31.925Z,42.73
2018-11-05T12:31:58.882Z,44.40
2018-11-05T12:34:25.809Z,47.40
2018-11-05T12:36:52.757Z,43.57
2018-11-05T12:39:19.722Z,45.40
2018-11-05T12:41:46.672Z,42.70
2018-11-05T12:44:13.624Z,42.67
2018-11-05T12:46:41.376Z,44.33
2018-11-05T12:49:08.308Z,45.53
2018-11-05T12:51:35.265Z,44.03
2018-11-05T12:54:02.529Z,43.87
2018-11-05T12:56:29.519Z,42.33
2018-11-05T12:58:56.830Z,40.50
2018-11-05T13:01:23.758Z,46.03
2018-11-05T13:03:50.706Z,42.93
2018-11-05T13:06:17.634Z,42.70
2018-11-05T13:08:44.565Z,44.23
2018-11-05T13:11:11.481Z,42.10
2018-11-05T13:13:38.392Z,36.60
2018-11-05T13:16:05.313Z,39.13
2018-11-05T13:18:32.225Z,38.83
2018-11-05T13:20:59.147Z,41.77
2018-11-05T13:23:31.649Z,39.43
2018-11-05T13:25:58.548Z,42.27
2018-11-05T13:28:25.524Z,41.70
2018-11-05T13:30:52.429Z,40.07
2018-11-05T13:33:19.322Z,39.67
2018-11-05T13:35:46.221Z,43.17
2018-11-05T13:38:13.718Z,43.67
2018-11-05T13:40:40.060Z,44.20
2018-11-05T13:43:06.980Z,43.17
2018-11-05T13:45:34.330Z,46.57
2018-11-05T13:48:00.826Z,47.07
2018-11-05T13:50:28.052Z,47.30
2018-11-05T13:52:54.594Z,44.93
2018-11-05T13:55:21.494Z,46.23
2018-11-05T13:57:48.532Z,44.90
2018-11-05T14:00:18.699Z,46.50
2018-11-05T14:02:45.605Z,49.13
2018-11-05T14:05:12.793Z,49.17
2018-11-05T14:07:39.706Z,49.70
2018-11-05T14:10:09.027Z,47.87
2018-11-05T14:12:35.990Z,47.30
2018-11-05T14:15:02.936Z,50.37
2018-11-05T14:17:29.839Z,48.00
2018-11-05T14:19:56.772Z,47.00
2018-11-05T14:22:23.720Z,49.37
2018-11-05T14:24:50.640Z,50.73
2018-11-05T14:27:17.620Z,49.63
2018-11-05T14:29:44.944Z,53.07
2018-11-05T14:32:11.388Z,52.90
2018-11-05T14:37:11.907Z,56.70
2018-11-05T14:39:38.788Z,53.43
2018-11-05T14:42:05.740Z,60.37
2018-11-05T14:44:32.689Z,57.17
2018-11-05T14:46:59.617Z,57.97
2018-11-05T14:49:26.525Z,56.10
2018-11-05T14:51:53.448Z,54.23
2018-11-05T14:54:20.368Z,55.43
2018-11-05T14:56:47.270Z,61.33
2018-11-05T14:59:14.189Z,55.07
2018-11-05T15:01:41.166Z,59.90
2018-11-05T15:04:08.116Z,59.33
2018-11-05T15:06:35.042Z,56.97
2018-11-05T15:09:02.101Z,60.73
2018-11-05T15:11:29.010Z,62.37
2018-11-05T15:13:55.956Z,65.87
2018-11-05T15:16:22.889Z,56.97
2018-11-05T15:18:50.371Z,53.60
2018-11-05T15:21:16.792Z,60.73
2018-11-05T15:23:43.810Z,63.23
2018-11-05T15:26:10.869Z,61.63
2018-11-05T15:28:37.701Z,70.67
2018-11-05T15:31:05.216Z,64.80
2018-11-05T15:33:32.178Z,57.97
2018-11-05T15:35:59.120Z,67.73
2018-11-05T15:38:26.045Z,63.27
2018-11-05T15:40:52.984Z,68.03
2018-11-05T15:43:19.908Z,63.60
2018-11-05T15:45:46.857Z,68.10
2018-11-05T15:48:13.794Z,71.83
2018-11-05T15:50:40.936Z,73.33
2018-11-05T15:53:08.169Z,64.70
2018-11-05T15:55:34.899Z,66.50
2018-11-05T15:58:01.847Z,73.30
2018-11-05T16:00:28.789Z,71.53
2018-11-05T16:02:57.246Z,70.97
2018-11-05T16:05:24.158Z,71.37
2018-11-05T16:07:51.077Z,71.50
2018-11-05T16:10:17.997Z,73.77
2018-11-05T16:12:44.909Z,71.90
2018-11-05T16:15:12.465Z,88.03
2018-11-05T16:17:39.372Z,76.03
2018-11-05T16:20:08.296Z,78.77
2018-11-05T16:22:35.201Z,75.17
2018-11-05T16:25:02.196Z,77.63
2018-11-05T16:27:29.687Z,79.13
2018-11-05T16:29:56.645Z,82.73
2018-11-05T16:32:23.557Z,91.10
2018-11-05T16:34:50.542Z,87.80
2018-11-05T16:37:17.406Z,88.10
2018-11-05T16:39:44.485Z,89.53
2018-11-05T16:42:11.288Z,89.43
2018-11-05T16:44:38.175Z,88.80
2018-11-05T16:47:05.138Z,98.73
2018-11-05T16:49:32.048Z,102.77
2018-11-05T16:51:59.028Z,106.00
2018-11-05T16:54:25.944Z,100.87
2018-11-05T16:56:52.857Z,109.87
2018-11-05T16:59:19.760Z,110.10
2018-11-05T17:01:47.265Z,106.00
2018-11-05T17:04:13.814Z,102.50
2018-11-05T17:06:40.764Z,103.57
2018-11-05T17:09:08.353Z,94.63
2018-11-05T17:11:35.309Z,106.90
2018-11-05T17:16:36.010Z,114.90
2018-11-05T17:19:03.061Z,109.90
2018-11-05T17:21:29.997Z,103.40
2018-11-05T17:23:56.936Z,106.03
2018-11-05T17:26:23.964Z,112.53
2018-11-05T17:28:50.816Z,108.10
2018-11-05T17:31:17.794Z,114.77
2018-11-05T17:33:44.745Z,108.57
2018-11-05T17:36:11.686Z,105.97
2018-11-05T17:38:38.654Z,113.37
2018-11-05T17:41:05.924Z,112.77
2018-11-05T17:43:32.890Z,118.03
2018-11-05T17:45:59.876Z,103.63
2018-11-05T17:48:26.849Z,103.07
2018-11-05T17:50:53.907Z,93.47
2018-11-05T17:53:20.754Z,94.10
2018-11-05T17:55:47.729Z,85.90
2018-11-05T17:58:14.693Z,88.00
2018-11-05T18:00:41.677Z,90.93
2018-11-05T18:03:08.634Z,89.80
2018-11-05T18:05:35.584Z,104.70
2018-11-05T18:08:02.543Z,98.83
2018-11-05T18:10:29.484Z,98.60
2018-11-05T18:12:56.444Z,106.17
2018-11-05T18:15:23.379Z,101.23
2018-11-05T18:17:50.337Z,108.10
2018-11-05T18:20:17.533Z,110.93
2018-11-05T18:22:44.500Z,109.60
2018-11-05T18:25:12.941Z,116.60
2018-11-05T18:27:46.973Z,111.57
2018-11-05T18:30:14.518Z,107.47
2018-11-05T18:32:41.486Z,116.50
2018-11-05T18:35:09.751Z,113.70
2018-11-05T18:37:36.741Z,116.80
2018-11-05T18:40:06.149Z,117.53
2018-11-05T18:42:33.091Z,113.50
2018-11-05T18:45:00.057Z,128.00
2018-11-05T18:47:27.020Z,120.23
2018-11-05T18:49:54.024Z,117.13
2018-11-05T18:52:20.931Z,116.53
2018-11-05T18:54:47.906Z,119.97
2018-11-05T18:57:14.922Z,117.40
2018-11-05T18:59:41.862Z,116.10
2018-11-05T19:02:08.838Z,118.50
2018-11-05T19:04:35.864Z,119.17
2018-11-05T19:07:02.784Z,120.73
2018-11-05T19:09:29.735Z,120.00
2018-11-05T19:11:56.641Z,115.67
2018-11-05T19:14:23.560Z,122.90
2018-11-05T19:16:50.486Z,122.97
2018-11-05T19:19:17.395Z,111.30
2018-11-05T19:21:44.324Z,110.60
2018-11-05T19:24:11.325Z,108.63
2018-11-05T19:26:38.202Z,110.93
2018-11-05T19:29:05.125Z,113.70
2018-11-05T19:31:32.037Z,118.53
2018-11-05T19:33:58.967Z,104.00
2018-11-05T19:36:25.897Z,108.57
2018-11-05T19:38:52.800Z,108.07
2018-11-05T19:41:19.714Z,103.57
2018-11-05T19:43:46.619Z,103.60
2018-11-05T19:46:13.542Z,102.70
2018-11-05T19:48:40.450Z,99.93
2018-11-05T19:51:07.389Z,100.47
2018-11-05T19:53:34.361Z,101.93
2018-11-05T19:56:01.308Z,99.43
2018-11-05T19:58:28.169Z,100.60
2018-11-05T20:00:55.163Z,100.17
2018-11-05T20:03:22.028Z,107.00
2018-11-05T20:05:48.988Z,107.03
2018-11-05T20:08:15.885Z,101.90
2018-11-05T20:10:42.816Z,99.97
2018-11-05T20:13:09.724Z,101.43
2018-11-05T20:15:36.673Z,112.20
2018-11-05T20:18:03.666Z,108.70
2018-11-05T20:20:30.629Z,108.10
2018-11-05T20:22:57.573Z,110.00
2018-11-05T20:25:24.426Z,116.73
2018-11-05T20:27:51.688Z,115.03
2018-11-05T20:30:20.021Z,113.13
2018-11-05T20:32:48.458Z,117.33
2018-11-05T20:35:15.169Z,107.27
2018-11-05T20:37:42.143Z,113.03
2018-11-05T20:40:11.714Z,116.07
2018-11-05T20:42:38.616Z,115.33
2018-11-05T20:45:05.976Z,119.70
2018-11-05T20:47:33.616Z,112.33
2018-11-05T20:50:01.460Z,105.97
2018-11-05T20:52:29.098Z,109.00
2018-11-05T20:54:56.398Z,114.03
2018-11-05T20:57:23.581Z,116.00
2018-11-05T20:59:50.535Z,115.30
2018-11-05T21:02:17.500Z,108.50
2018-11-05T21:04:44.415Z,126.17
2018-11-05T21:07:12.122Z,121.60
2018-11-05T21:09:39.708Z,127.70
2018-11-05T21:12:07.838Z,124.57
2018-11-05T21:14:35.344Z,121.53
2018-11-05T21:17:02.492Z,119.40
2018-11-05T21:19:29.540Z,110.07
2018-11-05T21:21:57.359Z,137.13
2018-11-05T21:24:24.452Z,122.93
2018-11-05T21:26:51.403Z,138.00
2018-11-05T21:29:19.043Z,141.00
2018-11-05T21:31:46.729Z,132.57
2018-11-05T21:34:14.384Z,145.83
2018-11-05T21:36:41.708Z,123.10
2018-11-05T21:39:10.948Z,130.20
2018-11-05T21:41:39.441Z,122.47
2018-11-05T21:44:06.982Z,125.77
2018-11-05T21:46:34.109Z,135.77
2018-11-05T21:49:01.053Z,122.50
2018-11-05T21:51:28.801Z,114.60
2018-11-05T21:53:56.502Z,124.63
2018-11-05T21:56:23.511Z,108.97
2018-11-05T21:58:50.857Z,109.63
2018-11-05T22:01:17.792Z,133.53
2018-11-05T22:03:44.967Z,126.13
2018-11-05T22:06:12.460Z,133.43
2018-11-05T22:08:40.026Z,141.63
2018-11-05T22:11:07.181Z,138.87
2018-11-05T22:13:34.154Z,150.73
2018-11-05T22:16:01.687Z,130.87
2018-11-05T22:18:29.363Z,158.67
2018-11-05T22:23:30.772Z,139.73
2018-11-05T22:25:57.952Z,124.63
2018-11-05T22:28:25.420Z,134.47
2018-11-05T22:30:52.393Z,136.37
2018-11-05T22:33:19.324Z,132.87
2018-11-05T22:35:46.295Z,141.00
2018-11-05T22:38:13.297Z,142.17
2018-11-05T22:40:40.215Z,126.37
2018-11-05T22:43:13.888Z,135.83
2018-11-05T22:45:40.889Z,133.87
2018-11-05T22:48:07.865Z,142.80
2018-11-05T22:50:34.813Z,131.67
2018-11-05T22:53:01.784Z,122.80
2018-11-05T22:55:28.732Z,142.27
2018-11-05T22:57:55.656Z,131.97
2018-11-05T23:00:28.277Z,134.33
2018-11-05T23:03:32.413Z,129.93
2018-11-05T23:05:59.609Z,135.17
2018-11-05T23:08:26.622Z,130.73
2018-11-05T23:10:53.557Z,121.93
2018-11-05T23:13:20.567Z,136.90
2018-11-05T23:15:47.516Z,133.63
2018-11-05T23:18:14.485Z,136.80
2018-11-05T23:20:41.477Z,122.60
2018-11-05T23:23:08.413Z,128.00
2018-11-05T23:25:35.335Z,128.67
2018-11-05T23:28:02.243Z,135.57
2018-11-05T23:30:29.167Z,132.57
2018-11-05T23:32:56.081Z,135.20
2018-11-05T23:35:23.009Z,133.23
2018-11-05T23:37:49.920Z,131.33
2018-11-05T23:40:16.852Z,140.57
2018-11-05T23:42:43.737Z,123.23
2018-11-05T23:45:13.320Z,122.87
2018-11-05T23:47:40.273Z,129.27
2018-11-05T23:50:07.526Z,139.67
2018-11-05T23:52:34.469Z,140.73
2018-11-05T23:55:01.411Z,134.17
2018-11-05T23:57:28.312Z,136.47
2018-11-05T23:59:55.208Z,127.90
